createdAt,value
2019-04-06T00:01:47.560Z,24.5
2019-04-06T00:03:49.012Z,22.9
2019-04-06T00:05:50.383Z,19.5
2019-04-06T00:07:51.778Z,19.1
2019-04-06T00:09:53.193Z,18.2
2019-04-06T00:11:54.577Z,22
2019-04-06T00:13:56.009Z,23.4
2019-04-06T00:15:57.439Z,23.8
2019-04-06T00:17:58.874Z,20.1
2019-04-06T00:20:00.374Z,18.9
2019-04-06T00:22:01.734Z,26.1
2019-04-06T00:24:03.176Z,25.4
2019-04-06T00:26:04.599Z,25.3
2019-04-06T00:28:06.030Z,25
2019-04-06T00:30:07.469Z,26.3
2019-04-06T00:32:08.864Z,24.5
2019-04-06T00:34:10.233Z,24.8
2019-04-06T00:36:11.663Z,24.5
2019-04-06T00:38:13.043Z,31.1
2019-04-06T00:40:14.479Z,31.9
2019-04-06T00:42:15.870Z,27.4
2019-04-06T00:44:17.199Z,25.2
2019-04-06T00:46:18.639Z,32.2
2019-04-06T00:48:19.981Z,26.9
2019-04-06T00:50:21.414Z,28.7
2019-04-06T00:52:22.859Z,23.8
2019-04-06T00:54:24.206Z,25.2
2019-04-06T00:56:25.641Z,26.2
2019-04-06T00:58:27.083Z,26.6
2019-04-06T01:00:28.617Z,27.2
2019-04-06T01:02:30.023Z,26.6
2019-04-06T01:04:31.457Z,26.2
2019-04-06T01:06:32.891Z,25.2
2019-04-06T01:08:34.232Z,22.5
2019-04-06T01:10:35.665Z,22.9
2019-04-06T01:12:37.089Z,22.4
2019-04-06T01:14:38.486Z,21.1
2019-04-06T01:16:39.939Z,22.1
2019-04-06T01:18:41.350Z,21
2019-04-06T01:20:42.707Z,20.6
2019-04-06T01:22:44.134Z,20.1
2019-04-06T01:24:45.595Z,21.6
2019-04-06T01:26:46.993Z,20.8
2019-04-06T01:28:48.362Z,27.9
2019-04-06T01:30:49.765Z,27.9
2019-04-06T01:32:51.107Z,30.6
2019-04-06T01:34:52.535Z,30
2019-04-06T01:36:53.983Z,24.9
2019-04-06T01:38:55.396Z,26.7
2019-04-06T01:40:56.746Z,32.7
2019-04-06T01:42:58.178Z,27.3
2019-04-06T01:44:59.682Z,32.7
2019-04-06T01:47:01.130Z,33.7
2019-04-06T01:49:02.598Z,34
2019-04-06T01:51:04.011Z,32.2
2019-04-06T01:53:05.432Z,33
2019-04-06T01:55:06.856Z,34.2
2019-04-06T01:57:08.302Z,27.4
2019-04-06T01:59:09.721Z,25.8
2019-04-06T02:01:11.054Z,27.2
2019-04-06T02:03:12.395Z,26.3
2019-04-06T02:05:13.818Z,27.9
2019-04-06T02:07:15.247Z,27.5
2019-04-06T02:09:16.693Z,24.8
2019-04-06T02:11:18.102Z,29.2
2019-04-06T02:13:19.439Z,30
2019-04-06T02:15:20.858Z,32
2019-04-06T02:17:22.234Z,30.8
2019-04-06T02:19:23.576Z,25.4
2019-04-06T02:21:25.021Z,32.5
2019-04-06T02:23:26.447Z,27.9
2019-04-06T02:25:27.878Z,38.1
2019-04-06T02:27:29.353Z,31.2
2019-04-06T02:29:30.742Z,29.9
2019-04-06T02:31:32.171Z,35.2
2019-04-06T02:33:33.574Z,35.8
2019-04-06T02:35:35.016Z,35.9
2019-04-06T02:37:36.438Z,39.8
2019-04-06T02:39:37.864Z,35.3
2019-04-06T02:41:39.294Z,36.7
2019-04-06T02:43:40.716Z,37.2
2019-04-06T02:45:42.186Z,36.6
2019-04-06T02:47:43.577Z,44.7
2019-04-06T02:49:45.026Z,38.7
2019-04-06T02:51:46.462Z,43.1
2019-04-06T02:53:47.888Z,39.9
2019-04-06T02:55:49.397Z,47.6
2019-04-06T02:57:50.830Z,41.6
2019-04-06T02:59:52.368Z,40.4
2019-04-06T03:01:53.719Z,38.8
2019-04-06T03:03:55.138Z,39.1
2019-04-06T03:05:56.664Z,38.6
2019-04-06T03:07:58.237Z,41.6
2019-04-06T03:09:59.653Z,39.8
2019-04-06T03:12:00.965Z,39.3
2019-04-06T03:14:02.258Z,38.6
2019-04-06T03:16:03.693Z,42.4
2019-04-06T03:18:05.119Z,39.8
2019-04-06T03:20:06.708Z,40.4
2019-04-06T03:22:08.281Z,52.7
2019-04-06T03:24:09.645Z,48.3
2019-04-06T03:26:11.272Z,42.8
2019-04-06T03:28:12.793Z,47.6
2019-04-06T03:30:14.702Z,45
2019-04-06T03:32:16.075Z,47.2
2019-04-06T03:34:22.478Z,50.9
2019-04-06T03:36:24.221Z,52.1
2019-04-06T03:38:25.570Z,48.9
2019-04-06T03:40:27.007Z,45.9
2019-04-06T03:42:28.428Z,47.6
2019-04-06T03:44:29.851Z,45.9
2019-04-06T03:46:31.294Z,45.8
2019-04-06T03:48:32.721Z,46.1
2019-04-06T03:50:34.153Z,46
2019-04-06T03:52:35.507Z,46.8
2019-04-06T03:54:36.956Z,54.5
2019-04-06T03:56:38.522Z,47.1
2019-04-06T04:00:34.976Z,50.8
2019-04-06T04:02:36.424Z,49.3
2019-04-06T04:04:37.820Z,48
2019-04-06T04:06:39.487Z,46.3
2019-04-06T04:08:40.890Z,53.1
2019-04-06T04:10:42.316Z,47.5
2019-04-06T04:12:43.743Z,55.9
2019-04-06T04:14:45.090Z,56.5
2019-04-06T04:16:46.519Z,53.4
2019-04-06T04:18:47.956Z,51.4
2019-04-06T04:20:49.617Z,48.3
2019-04-06T04:22:51.128Z,55.3
2019-04-06T04:24:52.713Z,49.7
2019-04-06T04:26:54.110Z,54
2019-04-06T04:28:55.523Z,49.7
2019-04-06T04:30:56.957Z,48.8
2019-04-06T04:32:58.334Z,52.3
2019-04-06T04:34:59.758Z,49.2
2019-04-06T04:37:01.119Z,52.4
2019-04-06T04:39:02.553Z,49.8
2019-04-06T04:41:04.250Z,53
2019-04-06T04:43:05.718Z,50.8
2019-04-06T04:45:07.131Z,58.2
2019-04-06T04:47:08.589Z,55.9
2019-04-06T04:49:09.987Z,53.6
2019-04-06T04:51:11.358Z,55
2019-04-06T04:53:12.876Z,55.6
2019-04-06T04:55:14.296Z,60.6
2019-04-06T04:57:15.594Z,60.8
2019-04-06T04:59:17.023Z,56.9
2019-04-06T05:01:18.561Z,56.6
2019-04-06T05:03:20.227Z,58.7
2019-04-06T05:05:21.651Z,53.5
2019-04-06T05:07:23.052Z,55.4
2019-04-06T05:09:24.388Z,57.4
2019-04-06T05:11:25.777Z,54.5
2019-04-06T05:13:27.207Z,55.8
2019-04-06T05:15:28.549Z,55.1
2019-04-06T05:17:29.897Z,53.9
2019-04-06T05:19:31.290Z,57.6
2019-04-06T05:21:32.634Z,59
2019-04-06T05:23:34.060Z,55.4
2019-04-06T05:25:35.492Z,53.3
2019-04-06T05:27:37.082Z,56.6
2019-04-06T05:29:38.447Z,53.3
2019-04-06T05:31:39.790Z,52.1
2019-04-06T05:33:41.383Z,54.1
2019-04-06T05:35:42.655Z,53.6
2019-04-06T05:37:44.067Z,55.2
2019-04-06T05:39:45.680Z,54
2019-04-06T05:41:47.009Z,53.7
2019-04-06T05:43:48.776Z,55.1
2019-04-06T05:45:50.097Z,53.5
2019-04-06T05:47:51.537Z,50.9
2019-04-06T05:49:52.958Z,52.1
2019-04-06T05:51:54.401Z,53.7
2019-04-06T05:53:55.794Z,55.1
2019-04-06T05:55:57.239Z,52.8
2019-04-06T05:58:05.514Z,51.9
2019-04-06T06:00:11.245Z,54.4
2019-04-06T06:02:12.908Z,52.2
2019-04-06T06:04:14.270Z,52.3
2019-04-06T06:06:15.683Z,52.1
2019-04-06T06:08:17.026Z,51.4
2019-04-06T06:10:18.433Z,54.5
2019-04-06T06:12:20.173Z,51.2
2019-04-06T06:14:21.594Z,52.7
2019-04-06T06:16:22.978Z,53.3
2019-04-06T06:18:27.726Z,52.7
2019-04-06T06:20:29.194Z,52.9
2019-04-06T06:22:30.569Z,53
2019-04-06T06:24:35.002Z,59.2
2019-04-06T06:26:36.539Z,51.4
2019-04-06T06:28:38.126Z,50.9
2019-04-06T06:30:39.480Z,51.3
2019-04-06T06:32:40.830Z,49.8
2019-04-06T06:34:42.226Z,51.2
2019-04-06T06:36:43.636Z,48.5
2019-04-06T06:38:45.005Z,51.8
2019-04-06T06:40:46.379Z,51.6
2019-04-06T06:42:47.739Z,47.9
2019-04-06T06:44:49.182Z,47.8
2019-04-06T06:46:50.613Z,48.2
2019-04-06T06:48:52.038Z,51.9
2019-04-06T06:50:53.470Z,48.1
2019-04-06T06:52:54.899Z,48.8
2019-04-06T06:54:56.394Z,48.5
2019-04-06T06:56:57.785Z,48.8
2019-04-06T06:58:59.156Z,47
2019-04-06T07:01:02.059Z,48.4
2019-04-06T07:03:04.585Z,48.7
2019-04-06T07:05:06.004Z,47.1
2019-04-06T07:07:07.333Z,47.7
2019-04-06T07:09:08.758Z,48.3
2019-04-06T07:11:10.188Z,50.7
2019-04-06T07:13:11.928Z,53.1
2019-04-06T07:15:13.291Z,53.1
2019-04-06T07:17:14.711Z,49.2
2019-04-06T07:19:16.098Z,47.9
2019-04-06T07:21:17.529Z,52.2
2019-04-06T07:23:18.944Z,45.9
2019-04-06T07:25:20.356Z,49.2
2019-04-06T07:27:21.693Z,54.4
2019-04-06T07:29:23.124Z,49.7
2019-04-06T07:31:24.448Z,49.4
2019-04-06T08:49:54.789Z,56.5
2019-04-06T08:51:56.225Z,54.8
2019-04-06T08:53:57.706Z,51.3
2019-04-06T08:55:59.101Z,47.8
2019-04-06T08:58:00.441Z,51.4
2019-04-06T09:00:01.881Z,49.8
2019-04-06T09:02:03.245Z,51.9
2019-04-06T09:04:04.667Z,49.8
2019-04-06T09:06:06.009Z,50.9
2019-04-06T09:08:07.281Z,46.7
2019-04-06T09:10:08.682Z,46
2019-04-06T09:12:10.123Z,47.2
2019-04-06T09:14:11.748Z,49.9
2019-04-06T09:16:13.134Z,44.3
2019-04-06T09:18:14.539Z,45.9
2019-04-06T09:20:15.990Z,43.6
2019-04-06T09:22:17.403Z,46.4
2019-04-06T09:24:18.766Z,47.3
2019-04-06T09:26:20.240Z,40.1
2019-04-06T09:28:21.718Z,47
2019-04-06T09:30:23.061Z,40.3
2019-04-06T09:32:24.497Z,39.4
2019-04-06T09:34:25.831Z,40.1
2019-04-06T09:36:27.400Z,46
2019-04-06T09:38:28.819Z,39.8
2019-04-06T09:40:30.399Z,38.7
2019-04-06T09:42:31.773Z,42.7
2019-04-06T09:44:33.137Z,37.2
2019-04-06T09:46:34.573Z,38.2
2019-04-06T09:48:35.935Z,34.7
2019-04-06T09:50:37.361Z,39.1
2019-04-06T09:52:38.672Z,36.3
2019-04-06T09:54:39.993Z,38.7
2019-04-06T09:56:41.687Z,33
2019-04-06T09:58:43.233Z,32.5
2019-04-06T10:00:44.596Z,29
2019-04-06T10:02:45.948Z,29
2019-04-06T10:04:47.596Z,27.8
2019-04-06T10:06:49.021Z,27.3
2019-04-06T10:08:50.365Z,30.1
2019-04-06T10:10:51.801Z,29.5
2019-04-06T10:12:53.428Z,29.2
2019-04-06T10:14:55.039Z,29.8
2019-04-06T10:16:56.377Z,27.6
2019-04-06T10:18:57.626Z,25.8
2019-04-06T10:24:45.152Z,28.2
2019-04-06T10:26:46.506Z,26.1
2019-04-06T10:28:47.942Z,26.5
2019-04-06T10:30:49.388Z,24.4
2019-04-06T10:32:50.965Z,30.6
2019-04-06T10:34:52.366Z,26.7
2019-04-06T10:36:54.252Z,24.9
2019-04-06T10:38:55.640Z,23.7
2019-04-06T10:40:56.981Z,22.6
2019-04-06T10:42:58.457Z,21.2
2019-04-06T10:44:59.851Z,19.4
2019-04-06T10:47:01.283Z,21.8
2019-04-06T10:49:02.731Z,20.7
2019-04-06T10:51:04.167Z,20.6
2019-04-06T10:53:05.571Z,20
2019-04-06T10:55:07.081Z,19.6
2019-04-06T10:57:08.477Z,18.8
2019-04-06T10:59:09.907Z,19.4
2019-04-06T11:01:11.262Z,18.9
2019-04-06T11:03:12.879Z,17.4
2019-04-06T11:05:14.244Z,20
2019-04-06T11:07:15.682Z,15.7
2019-04-06T11:09:17.125Z,16.9
2019-04-06T11:11:20.817Z,17.6
2019-04-06T11:13:22.220Z,15.2
2019-04-06T11:15:23.860Z,11.7
2019-04-06T11:17:25.518Z,12.3
2019-04-06T11:19:26.955Z,12.7
2019-04-06T11:21:28.655Z,12.2
2019-04-06T11:23:30.042Z,11.5
2019-04-06T11:25:31.492Z,10.8
2019-04-06T11:27:32.872Z,11.4
2019-04-06T11:29:34.315Z,11.8
2019-04-06T11:31:35.757Z,11
2019-04-06T11:33:37.645Z,11.4
2019-04-06T11:35:38.955Z,12.7
2019-04-06T11:37:40.396Z,11.4
2019-04-06T11:39:41.744Z,11.2
2019-04-06T11:41:43.484Z,11.5
2019-04-06T11:43:44.775Z,11.5
2019-04-06T11:45:46.205Z,12.2
2019-04-06T11:47:48.289Z,9.1
2019-04-06T11:49:49.954Z,10.6
2019-04-06T11:51:51.660Z,11.1
2019-04-06T11:53:53.437Z,12.2
2019-04-06T11:55:54.863Z,11
2019-04-06T11:57:56.362Z,10.8
2019-04-06T11:59:57.729Z,11.2
2019-04-06T12:01:59.127Z,11.5
2019-04-06T12:04:00.380Z,11.1
2019-04-06T12:06:01.747Z,11.3
2019-04-06T12:08:03.188Z,11.8
2019-04-06T12:10:05.027Z,11.5
2019-04-06T12:12:06.381Z,11.4
2019-04-06T12:14:07.740Z,11.2
2019-04-06T12:16:09.355Z,11.1
2019-04-06T12:18:11.054Z,13.7
2019-04-06T12:20:12.777Z,13.3
2019-04-06T12:22:14.171Z,12.3
2019-04-06T12:24:15.763Z,13.4
2019-04-06T12:26:17.421Z,14.1
2019-04-06T12:28:21.904Z,13.4
2019-04-06T12:30:36.506Z,13.3
2019-04-06T12:32:39.125Z,12.3
2019-04-06T12:34:40.543Z,13.1
2019-04-06T12:36:41.894Z,12.2
2019-04-06T12:38:43.211Z,13.9
2019-04-06T12:40:44.556Z,13.9
2019-04-06T12:42:45.906Z,13.8
2019-04-06T12:44:47.541Z,12.6
2019-04-06T12:46:48.945Z,13.7
2019-04-06T12:48:53.475Z,13.7
2019-04-06T12:50:55.155Z,13
2019-04-06T12:52:56.855Z,13.4
2019-04-06T12:54:58.328Z,13.3
2019-04-06T12:56:59.729Z,12.7
2019-04-06T12:59:01.156Z,12.8
2019-04-06T13:01:02.738Z,13.8
2019-04-06T13:03:04.851Z,12.4
2019-04-06T13:05:06.381Z,12.6
2019-04-06T13:07:07.745Z,12.8
2019-04-06T13:09:09.199Z,13
2019-04-06T13:11:10.651Z,13
2019-04-06T13:13:12.497Z,14.2
2019-04-06T13:15:14.433Z,14.6
2019-04-06T13:17:15.819Z,14.9
2019-04-06T13:19:17.242Z,12.7
2019-04-06T13:21:18.665Z,13.3
2019-04-06T13:23:20.445Z,13.1
2019-04-06T13:25:22.136Z,13.9
2019-04-06T13:27:23.522Z,13.2
2019-04-06T13:29:24.958Z,13.4
2019-04-06T13:31:26.282Z,13.1
2019-04-06T13:33:27.914Z,14.1
2019-04-06T13:35:29.227Z,13.3
2019-04-06T13:37:30.574Z,12.6
2019-04-06T13:39:31.924Z,14.3
2019-04-06T13:41:33.630Z,13.4
2019-04-06T13:43:35.017Z,12.9
2019-04-06T13:45:36.368Z,13.7
2019-04-06T13:47:37.974Z,13.1
2019-04-06T13:49:39.679Z,12.3
2019-04-06T13:51:41.439Z,13
2019-04-06T13:53:42.862Z,13.2
2019-04-06T13:55:44.212Z,13
2019-04-06T13:57:45.580Z,12.4
2019-04-06T13:59:46.976Z,13.9
2019-04-06T14:01:48.421Z,13.8
2019-04-06T14:03:49.845Z,13.6
2019-04-06T14:05:51.163Z,14.1
2019-04-06T14:07:52.515Z,13.4
2019-04-06T14:09:54.019Z,12.6
2019-04-06T14:11:55.414Z,12.3
2019-04-06T14:13:56.757Z,12.8
2019-04-06T14:15:58.105Z,15.1
2019-04-06T14:17:59.464Z,21.2
2019-04-06T14:20:00.893Z,17.9
2019-04-06T14:22:02.339Z,20
2019-04-06T14:24:03.937Z,19.6
2019-04-06T14:26:05.618Z,20.1
2019-04-06T14:28:09.873Z,22.1
2019-04-06T14:30:11.334Z,22.6
2019-04-06T14:32:12.690Z,21
2019-04-06T14:34:14.141Z,22.1
2019-04-06T14:36:15.552Z,20.7
2019-04-06T14:38:17.064Z,21.3
2019-04-06T14:40:18.444Z,21.6
2019-04-06T14:42:19.911Z,22.2
2019-04-06T14:44:21.807Z,20.7
2019-04-06T14:46:23.394Z,18.5
2019-04-06T14:48:24.838Z,20
2019-04-06T14:50:26.401Z,20.8
2019-04-06T14:52:27.815Z,20.7
2019-04-06T14:54:29.273Z,21.9
2019-04-06T14:56:30.707Z,23.7
2019-04-06T14:58:32.719Z,21.4
2019-04-06T15:00:34.239Z,20.7
2019-04-06T15:02:35.949Z,22.5
2019-04-06T15:04:37.839Z,25.5
2019-04-06T15:06:39.525Z,24.4
2019-04-06T15:08:41.325Z,21.9
2019-04-06T15:10:42.924Z,24.5
2019-04-06T15:12:44.784Z,25
2019-04-06T15:14:46.157Z,22.9
2019-04-06T15:16:47.606Z,21.9
2019-04-06T15:18:49.065Z,24
2019-04-06T15:20:50.792Z,26.1
2019-04-06T15:22:52.185Z,23.4
2019-04-06T15:24:53.630Z,23.2
2019-04-06T15:26:55.032Z,24
2019-04-06T15:28:56.480Z,27.3
2019-04-06T15:30:57.933Z,26.6
2019-04-06T15:32:59.374Z,24
2019-04-06T15:35:00.782Z,22.3
2019-04-06T15:37:02.297Z,22.5
2019-04-06T15:39:03.730Z,25.8
2019-04-06T15:41:05.140Z,21.9
2019-04-06T15:43:06.492Z,21.5
2019-04-06T15:45:07.853Z,22.6
2019-04-06T15:47:09.306Z,22.6
2019-04-06T15:49:10.646Z,23.5
2019-04-06T15:51:12.178Z,22.4
2019-04-06T15:53:13.566Z,21.3
2019-04-06T15:55:14.999Z,21.3
2019-04-06T15:57:16.719Z,22.2
2019-04-06T15:59:20.825Z,23
2019-04-06T16:01:22.255Z,22.1
2019-04-06T16:03:23.700Z,25.3
2019-04-06T16:05:25.694Z,24.5
2019-04-06T16:07:33.564Z,22.8
2019-04-06T16:09:38.038Z,23.6
2019-04-06T16:11:39.441Z,22.3
2019-04-06T16:13:40.897Z,22.6
2019-04-06T16:15:42.535Z,25.5
2019-04-06T16:17:43.872Z,23.1
2019-04-06T16:19:45.240Z,22.6
2019-04-06T16:21:47.137Z,23.6
2019-04-06T16:23:48.534Z,23.6
2019-04-06T16:25:49.938Z,24.7
2019-04-06T16:27:51.623Z,21.9
2019-04-06T16:29:53.035Z,24.3
2019-04-06T16:31:54.392Z,32.5
2019-04-06T16:33:55.821Z,23.6
2019-04-06T16:35:57.238Z,24
2019-04-06T16:37:59.174Z,23.2
2019-04-06T16:40:00.620Z,22.3
2019-04-06T16:42:02.343Z,21.2
2019-04-06T16:44:03.640Z,23.4
2019-04-06T16:46:05.092Z,22.9
2019-04-06T16:48:06.560Z,37.7
2019-04-06T16:50:08.274Z,21.2
2019-04-06T16:52:10.118Z,20.9
2019-04-06T16:54:11.538Z,20
2019-04-06T16:56:12.925Z,21.2
2019-04-06T16:58:14.754Z,22.9
2019-04-06T17:00:20.694Z,19.2
2019-04-06T17:02:25.364Z,21.8
2019-04-06T17:04:26.924Z,20.3
2019-04-06T17:06:28.275Z,19.9
2019-04-06T17:08:29.862Z,22.1
2019-04-06T17:10:31.185Z,19.3
2019-04-06T17:12:32.627Z,19.6
2019-04-06T17:14:33.907Z,18.8
2019-04-06T17:16:35.450Z,19.8
2019-04-06T17:18:36.801Z,18.1
2019-04-06T17:20:38.149Z,20.3
2019-04-06T17:22:39.505Z,20
2019-04-06T17:24:41.078Z,20.3
2019-04-06T17:26:42.400Z,19.2
2019-04-06T17:28:43.671Z,18.6
2019-04-06T17:30:45.183Z,18.4
2019-04-06T17:32:46.566Z,20.2
2019-04-06T17:34:56.027Z,19.3
2019-04-06T17:36:58.075Z,18.2
2019-04-06T17:38:59.522Z,24.2
2019-04-06T17:41:00.967Z,23.3
2019-04-06T17:43:02.319Z,19.3
2019-04-06T17:45:03.673Z,19.2
2019-04-06T17:47:05.085Z,19.4
2019-04-06T17:49:06.709Z,20.2
2019-04-06T17:51:08.103Z,19.1
2019-04-06T17:53:09.448Z,19.4
2019-04-06T17:55:11.316Z,17.9
2019-04-06T17:57:12.955Z,20.7
2019-04-06T17:59:14.301Z,20
2019-04-06T18:01:16.269Z,21.2
2019-04-06T18:05:14.699Z,20.1
2019-04-06T18:07:41.748Z,17.8
2019-04-06T18:09:43.177Z,18.3
2019-04-06T18:11:44.635Z,18.2
2019-04-06T18:13:46.248Z,18
2019-04-06T18:15:47.644Z,18.3
2019-04-06T18:17:49.451Z,21.2
2019-04-06T18:19:50.812Z,18.3
2019-04-06T18:21:52.175Z,20.2
2019-04-06T18:23:53.525Z,20.1
2019-04-06T18:25:54.958Z,20.9
2019-04-06T18:27:56.318Z,21.5
2019-04-06T18:29:57.760Z,21.2
2019-04-06T18:31:59.246Z,23.3
2019-04-06T18:34:00.603Z,18.2
2019-04-06T18:36:02.165Z,18.7
2019-04-06T18:38:03.597Z,17.8
2019-04-06T18:40:04.936Z,19.1
2019-04-06T18:42:06.353Z,19.1
2019-04-06T18:44:07.979Z,18.4
2019-04-06T18:46:09.282Z,18.7
2019-04-06T18:48:10.586Z,19.9
2019-04-06T18:50:11.860Z,19.8
2019-04-06T18:52:13.413Z,20.1
2019-04-06T18:54:14.852Z,21
2019-04-06T18:56:16.375Z,20.8
2019-04-06T18:58:17.746Z,21
2019-04-06T19:00:19.629Z,19.8
2019-04-06T19:02:21.403Z,19.9
2019-04-06T19:04:22.772Z,19
2019-04-06T19:06:24.164Z,20.5
2019-04-06T19:08:25.509Z,20.4
2019-04-06T19:10:27.054Z,20.1
2019-04-06T19:12:28.494Z,20.6
2019-04-06T19:14:30.556Z,21.1
2019-04-06T19:16:31.909Z,20.1
2019-04-06T19:18:33.494Z,20
2019-04-06T19:20:35.032Z,19.9
2019-04-06T19:22:36.358Z,19.8
2019-04-06T19:24:37.835Z,20.3
2019-04-06T19:26:39.246Z,21.5
2019-04-06T19:28:41.153Z,20.4
2019-04-06T19:30:42.919Z,21.9
2019-04-06T19:32:44.523Z,20.2
2019-04-06T19:34:45.895Z,21.8
2019-04-06T19:36:47.278Z,22.2
2019-04-06T19:38:48.672Z,20.6
2019-04-06T19:40:50.453Z,22.2
2019-04-06T19:42:52.155Z,22.5
2019-04-06T19:44:53.709Z,23.1
2019-04-06T19:46:55.140Z,21.5
2019-04-06T19:48:56.581Z,20.5
2019-04-06T19:50:58.017Z,23
2019-04-06T19:53:00.178Z,22.3
2019-04-06T19:55:01.615Z,22.9
2019-04-06T19:57:03.262Z,23.3
2019-04-06T19:59:05.177Z,23.1
2019-04-06T20:01:06.908Z,22.3
2019-04-06T20:03:08.730Z,22.6
2019-04-06T20:05:10.657Z,22.7
2019-04-06T20:07:12.008Z,22
2019-04-06T20:09:13.564Z,22.8
2019-04-06T20:11:15.474Z,22.6
2019-04-06T20:13:16.840Z,21.7
2019-04-06T20:15:18.634Z,22
2019-04-06T20:17:20.003Z,23
2019-04-06T20:19:22.679Z,23.1
2019-04-06T20:21:24.293Z,22.8
2019-04-06T20:23:25.718Z,22.2
2019-04-06T20:25:27.066Z,23
2019-04-06T20:27:29.099Z,22.8
2019-04-06T20:29:30.498Z,23.4
2019-04-06T20:31:31.928Z,22.9
2019-04-06T20:33:41.484Z,24.6
2019-04-06T20:35:47.809Z,23.6
2019-04-06T20:37:49.145Z,23.9
2019-04-06T20:39:50.573Z,24.4
2019-04-06T20:41:51.947Z,24.1
2019-04-06T20:43:53.479Z,24.8
2019-04-06T20:45:54.783Z,24.9
2019-04-06T20:47:56.115Z,24.6
2019-04-06T20:49:57.374Z,25.1
2019-04-06T20:51:59.690Z,25.1
2019-04-06T20:54:01.033Z,24.4
2019-04-06T20:56:02.387Z,25
2019-04-06T20:58:04.067Z,24.5
2019-04-06T21:00:06.046Z,25.2
2019-04-06T21:02:07.392Z,24.8
2019-04-06T21:04:09.322Z,25.2
2019-04-06T21:06:11.259Z,24.5
2019-04-06T21:08:12.685Z,25.4
2019-04-06T21:10:14.116Z,24.3
2019-04-06T21:12:16.039Z,25.2
2019-04-06T21:14:17.378Z,24.5
2019-04-06T21:16:18.814Z,25.5
2019-04-06T21:18:20.242Z,25.8
2019-04-06T21:20:21.968Z,26.4
2019-04-06T21:22:23.954Z,25.7
2019-04-06T21:24:25.340Z,25.7
2019-04-06T21:26:26.770Z,26.8
2019-04-06T21:28:28.026Z,27.3
2019-04-06T21:30:29.469Z,25.3
2019-04-06T21:32:31.144Z,27
2019-04-06T21:34:32.855Z,26.7
2019-04-06T21:36:35.097Z,25.9
2019-04-06T21:38:36.486Z,26.1
2019-04-06T21:40:38.651Z,25.5
2019-04-06T21:42:40.079Z,26.9
2019-04-06T21:44:41.485Z,27.2
2019-04-06T21:46:43.517Z,28.3
2019-04-06T21:48:44.939Z,28.3
2019-04-06T21:50:46.538Z,27.8
2019-04-06T21:52:49.712Z,27.2
2019-04-06T21:54:51.139Z,27.7
2019-04-06T21:56:52.504Z,28
2019-04-06T21:58:53.842Z,27.5
2019-04-06T22:00:55.367Z,26.9
2019-04-06T22:02:56.786Z,28.1
2019-04-06T22:04:58.214Z,27.7
2019-04-06T22:06:59.468Z,27.4
2019-04-06T22:09:01.597Z,27.8
2019-04-06T22:11:03.052Z,27.4
2019-04-06T22:13:05.031Z,27.1
2019-04-06T22:15:06.406Z,26.1
2019-04-06T22:17:07.741Z,29
2019-04-06T22:19:09.614Z,28.4
2019-04-06T22:21:11.416Z,29.1
2019-04-06T22:23:13.187Z,28.5
2019-04-06T22:25:14.579Z,29.5
2019-04-06T22:27:16.084Z,28.9
2019-04-06T22:29:17.447Z,30
2019-04-06T22:31:18.790Z,28.7
2019-04-06T22:33:20.857Z,28.9
2019-04-06T22:35:23.173Z,29.7
2019-04-06T22:37:24.621Z,28.3
2019-04-06T22:39:26.117Z,30.8
2019-04-06T22:41:27.483Z,29.4
2019-04-06T22:43:29.496Z,30.1
2019-04-06T22:45:31.124Z,31.4
2019-04-06T22:47:32.472Z,31.1
2019-04-06T22:49:33.938Z,30.8
2019-04-06T22:51:35.687Z,31
2019-04-06T22:53:37.054Z,31
2019-04-06T22:55:38.405Z,29.8
2019-04-06T22:57:39.985Z,32.2
2019-04-06T22:59:41.602Z,30.4
2019-04-06T23:01:42.983Z,30.3
2019-04-06T23:03:45.136Z,30
2019-04-06T23:05:47.088Z,30.6
2019-04-06T23:07:48.483Z,31.5
2019-04-06T23:09:49.910Z,28.5
2019-04-06T23:11:51.470Z,31.3
2019-04-06T23:13:52.794Z,32.5
2019-04-06T23:15:54.414Z,32.1
2019-04-06T23:17:55.837Z,32.9
2019-04-06T23:19:57.167Z,32
2019-04-06T23:21:58.507Z,31.4
2019-04-06T23:23:59.855Z,32.6
2019-04-06T23:26:01.189Z,30
2019-04-06T23:28:02.624Z,31.6
2019-04-06T23:32:05.471Z,30.8
2019-04-06T23:34:06.829Z,30.3
2019-04-06T23:36:08.201Z,28.4
2019-04-06T23:38:09.629Z,31.5
2019-04-06T23:40:11.339Z,31.1
2019-04-06T23:42:12.670Z,30.9
2019-04-06T23:44:14.699Z,32.2
2019-04-06T23:46:16.824Z,31.7
2019-04-06T23:48:18.892Z,29.6
2019-04-06T23:50:20.210Z,30.9
2019-04-06T23:52:21.654Z,32
2019-04-06T23:54:23.086Z,31.2
2019-04-06T23:56:24.425Z,30.4
2019-04-06T23:58:25.862Z,32
